MST,Max TemperatureF,Mean TemperatureF,Min TemperatureF,Max Dew PointF,MeanDew PointF,Min DewpointF,Max Humidity, Mean Humidity, Min Humidity, Max Sea Level PressureIn, Mean Sea Level PressureIn, Min Sea Level PressureIn, Max VisibilityMiles, Mean VisibilityMiles, Min VisibilityMiles, Max Wind SpeedMPH, Mean Wind SpeedMPH, Max Gust SpeedMPH,PrecipitationIn, CloudCover, Events, WindDirDegrees
2011-11-1,37,32,26,27,25,18,92,72,51,30.33,30.08,29.86,10,4,0,15,5,21,0.20,8,Fog-Snow,25
2011-11-2,34,25,16,25,16,1,92,64,36,30.51,30.41,30.23,10,9,2,16,7,23,T,2,Snow,323
2011-11-3,46,34,21,15,3,-8,50,30,10,30.35,30.10,29.84,10,10,10,17,8,29,0.00,0,,234
2011-11-4,60,46,32,19,12,9,43,29,14,29.83,29.70,29.50,10,10,10,20,7,28,0.00,0,,244
2011-11-5,56,40,24,31,23,19,81,58,35,29.47,29.35,29.18,10,10,10,22,7,37,0.00,2,,292
2011-11-6,34,24,13,20,16,12,92,67,41,30.11,29.75,29.47,10,9,2,25,8,37,0.01,4,Snow,271
2011-11-7,37,24,11,23,15,8,100,70,40,30.24,30.18,30.12,10,10,10,12,4,18,0.00,1,,228
2011-11-8,41,29,17,27,17,8,92,60,27,30.34,30.20,30.07,10,9,3,13,4,16,T,2,Snow,308
2011-11-9,37,28,18,19,14,11,74,55,35,30.46,30.39,30.33,10,10,10,23,6,31,0.00,2,,291
2011-11-10,49,35,21,13,10,8,65,42,19,30.32,30.08,29.84,10,10,10,17,7,22,0.00,0,,259
2011-11-11,53,42,31,10,7,0,35,24,12,29.86,29.71,29.46,10,10,10,20,9,28,0.00,0,,263
2011-11-12,49,40,31,32,22,7,60,43,25,29.42,29.33,29.24,10,8,1,33,12,47,0.09,4,Rain-Snow,270
2011-11-13,41,31,21,29,18,12,100,67,34,29.56,29.43,29.33,10,10,10,24,8,37,T,1,,264
2011-11-14,40,31,22,25,19,11,100,67,34,29.63,29.55,29.47,10,8,2,21,7,31,T,5,Snow,259
2011-11-15,27,20,13,21,8,0,81,58,35,30.12,29.88,29.59,10,9,3,22,8,31,T,6,Snow,291
2011-11-16,23,18,12,12,4,-10,88,61,34,30.32,30.22,30.04,10,8,1,23,9,33,0.02,4,Snow,260
2011-11-17,43,30,16,21,10,-10,48,38,28,30.18,29.84,29.60,10,10,10,23,12,33,0.00,0,,258
2011-11-18,36,26,16,23,19,13,92,72,51,29.74,29.61,29.56,10,4,0,20,7,25,0.42,8,Fog-Snow,61
2011-11-19,16,6,-4,13,8,-6,92,86,79,30.19,29.80,29.58,10,3,0,13,5,17,0.45,6,Fog-Snow,84
2011-11-20,31,15,-2,24,15,-2,92,73,53,30.19,30.12,30.03,10,10,10,13,6,18,0.00,0,,253
2011-11-21,42,32,22,28,25,21,92,74,55,30.09,30.01,29.94,10,10,9,16,7,25,0.00,0,,255
2011-11-22,39,32,25,24,20,16,81,63,44,30.10,30.03,29.98,10,10,10,26,9,33,0.00,0,,276
2011-11-23,48,40,32,24,22,19,61,49,36,30.12,30.01,29.88,10,10,10,28,12,39,0.00,0,,265
2011-11-24,48,45,41,24,21,18,45,38,31,29.84,29.75,29.66,10,10,10,22,11,31,0.00,0,,255
2011-11-25,49,38,26,30,22,12,82,56,29,30.03,29.74,29.58,10,8,1,24,10,39,0.01,4,Snow,309
2011-11-26,29,23,17,17,9,1,74,53,31,30.58,30.39,30.07,10,9,5,24,10,40,T,2,Snow,301
2011-11-27,50,34,17,22,16,0,53,44,34,30.46,30.24,30.01,10,10,10,13,6,16,0.00,0,,267
2011-11-28,50,37,23,24,20,15,84,54,24,30.36,30.19,29.96,10,10,10,13,4,20,0.00,2,,342
2011-11-29,48,35,22,23,20,12,88,61,34,30.35,30.20,29.92,10,10,10,12,4,15,0.00,1,,264
2011-11-30,42,34,26,31,26,19,89,65,41,30.19,29.95,29.79,10,8,2,16,4,28,0.01,7,Snow,358